Time;durP1;ratioP1;P1;durP2;ratioP2;P2;SDS_P1;SDS_P2;PMS_P1;PMS_P2;Temp;Humidity;BMP_temperature;BMP_pressure;BME280_temperature;BME280_humidity;BME280_pressure;Samples;Min_cycle;Max_cycle;Signal;HPM_P1;HPM_P2
2023/04/18 00:02:02;;;;;;;22.27;13.95;;;5.40;99.90;;;;;;5079477;28;20056;-83
2023/04/18 00:04:28;;;;;;;21.00;15.25;;;5.30;99.90;;;;;;5077609;28;20036;-82
2023/04/18 00:06:53;;;;;;;22.80;14.43;;;5.30;99.90;;;;;;5081591;28;20016;-84
2023/04/18 00:09:19;;;;;;;20.63;14.35;;;5.20;99.90;;;;;;5087176;28;20025;-86
2023/04/18 00:11:44;;;;;;;21.55;13.95;;;5.30;99.90;;;;;;5097648;28;20282;-85
2023/04/18 00:14:10;;;;;;;18.55;13.43;;;5.20;99.90;;;;;;5083560;28;20033;-83
2023/04/18 00:16:36;;;;;;;19.27;14.20;;;5.20;99.90;;;;;;5083627;28;20039;-82
2023/04/18 00:19:04;;;;;;;23.38;14.20;;;5.20;99.90;;;;;;5084117;28;20039;-82
2023/04/18 00:21:30;;;;;;;23.33;14.73;;;5.20;99.90;;;;;;5074472;28;20084;-83
2023/04/18 00:23:56;;;;;;;21.92;15.07;;;5.20;99.90;;;;;;5070495;28;20024;-82
2023/04/18 00:26:22;;;;;;;22.60;15.27;;;5.20;99.90;;;;;;5079592;28;20021;-82
2023/04/18 00:28:47;;;;;;;25.77;15.80;;;5.20;99.90;;;;;;5078059;28;20525;-83
2023/04/18 00:31:13;;;;;;;23.33;15.13;;;5.20;99.90;;;;;;5074509;28;20033;-83
2023/04/18 00:33:38;;;;;;;21.85;14.43;;;5.20;99.90;;;;;;5083753;28;20028;-82
2023/04/18 00:36:04;;;;;;;24.00;16.20;;;5.20;99.90;;;;;;5073848;28;20448;-83
2023/04/18 00:38:30;;;;;;;32.88;16.23;;;5.20;99.90;;;;;;5085081;28;20036;-83
2023/04/18 00:40:55;;;;;;;23.80;16.35;;;5.20;99.90;;;;;;5085775;28;20021;-82
2023/04/18 00:43:23;;;;;;;26.02;15.80;;;5.10;99.90;;;;;;5080193;28;20111;-83
2023/04/18 00:45:49;;;;;;;22.02;15.18;;;5.10;99.90;;;;;;5077133;28;20026;-82
2023/04/18 00:48:15;;;;;;;20.65;16.00;;;5.10;99.90;;;;;;5075719;28;20023;-84
2023/04/18 00:50:41;;;;;;;27.58;16.35;;;5.10;99.90;;;;;;5074155;28;20475;-83
2023/04/18 00:53:09;;;;;;;22.45;15.60;;;5.00;99.90;;;;;;5075790;28;20043;-82
2023/04/18 00:55:34;;;;;;;21.58;15.02;;;4.90;99.90;;;;;;5082386;28;20636;-84
2023/04/18 00:58:00;;;;;;;21.40;14.70;;;4.90;99.90;;;;;;5076927;28;20065;-83
2023/04/18 01:00:29;;;;;;;26.65;15.43;;;4.90;99.90;;;;;;5073721;28;20033;-83
2023/04/18 01:02:54;;;;;;;24.90;15.57;;;4.90;99.90;;;;;;5086615;28;20512;-83
2023/04/18 01:05:21;;;;;;;23.98;16.10;;;4.90;99.90;;;;;;5072891;28;20063;-83
2023/04/18 01:07:48;;;;;;;21.42;15.30;;;4.80;99.90;;;;;;5089658;28;20039;-83
2023/04/18 01:10:14;;;;;;;19.77;14.77;;;4.80;99.90;;;;;;5090705;28;20112;-82
2023/04/18 01:12:39;;;;;;;19.58;14.85;;;4.80;99.90;;;;;;5076992;28;20110;-83
2023/04/18 01:15:06;;;;;;;24.17;16.40;;;4.70;99.90;;;;;;5085867;28;20056;-83
2023/04/18 01:17:33;;;;;;;23.15;16.00;;;4.70;99.90;;;;;;5084113;28;20506;-84
2023/04/18 01:20:00;;;;;;;25.63;15.20;;;4.70;99.90;;;;;;5075022;28;20115;-83
2023/04/18 01:22:27;;;;;;;23.85;15.85;;;4.70;99.90;;;;;;5083290;28;20088;-84
2023/04/18 01:24:52;;;;;;;22.70;15.77;;;4.70;99.90;;;;;;5090190;28;20027;-84
2023/04/18 01:27:18;;;;;;;27.63;16.38;;;4.70;99.90;;;;;;5083244;28;20028;-84
2023/04/18 01:29:43;;;;;;;22.33;15.60;;;4.60;99.90;;;;;;5072841;28;20029;-84
2023/04/18 01:32:09;;;;;;;21.35;14.77;;;4.60;99.90;;;;;;5086933;28;20040;-84
2023/04/18 01:34:35;;;;;;;23.05;16.08;;;4.50;99.90;;;;;;5076184;28;20028;-84
2023/04/18 01:37:00;;;;;;;19.65;14.65;;;4.50;99.90;;;;;;5084613;28;20037;-82
2023/04/18 01:39:26;;;;;;;25.38;15.60;;;4.50;99.90;;;;;;5082588;28;20032;-84
2023/04/18 01:41:52;;;;;;;22.60;16.08;;;4.50;99.90;;;;;;5083517;28;20026;-83
2023/04/18 01:44:18;;;;;;;24.08;16.15;;;4.50;99.90;;;;;;5083315;28;20104;-84
2023/04/18 01:46:43;;;;;;;22.45;15.57;;;4.40;99.90;;;;;;5081502;28;20222;-84
2023/04/18 01:49:09;;;;;;;20.95;14.82;;;4.40;99.90;;;;;;5093870;28;20091;-83
2023/04/18 01:51:37;;;;;;;22.80;15.35;;;4.40;99.90;;;;;;5072537;28;20043;-83
2023/04/18 01:54:03;;;;;;;20.02;15.13;;;4.40;99.90;;;;;;5086153;28;20043;-83
2023/04/18 01:56:29;;;;;;;24.60;15.88;;;4.40;99.90;;;;;;5083376;28;20495;-83
2023/04/18 01:58:55;;;;;;;23.38;15.32;;;4.30;99.90;;;;;;5082966;28;20055;-83
2023/04/18 02:01:20;;;;;;;23.38;15.65;;;4.30;99.90;;;;;;5078221;28;20027;-83
2023/04/18 02:03:46;;;;;;;22.02;15.45;;;4.30;99.90;;;;;;5074420;28;20031;-83
2023/04/18 02:06:11;;;;;;;21.05;15.25;;;4.20;99.90;;;;;;5079512;28;20016;-83
2023/04/18 02:08:37;;;;;;;19.17;14.40;;;4.20;99.90;;;;;;5083121;28;20055;-84
2023/04/18 02:11:03;;;;;;;25.73;15.00;;;4.20;99.90;;;;;;5079733;28;20055;-83
2023/04/18 02:13:28;;;;;;;22.40;15.05;;;4.20;99.90;;;;;;5080108;28;20489;-84
2023/04/18 02:15:54;;;;;;;19.55;14.35;;;4.20;99.90;;;;;;5075990;28;20029;-83
2023/04/18 02:18:20;;;;;;;21.23;14.38;;;4.20;99.90;;;;;;5084072;28;20020;-83
2023/04/18 02:20:47;;;;;;;22.55;14.45;;;4.10;99.90;;;;;;5084153;28;20017;-82
2023/04/18 02:23:13;;;;;;;21.20;14.77;;;4.10;99.90;;;;;;5084587;28;20418;-84
2023/04/18 02:25:38;;;;;;;19.50;14.45;;;4.10;99.90;;;;;;5086009;28;20013;-84
2023/04/18 02:28:04;;;;;;;19.05;14.18;;;4.10;99.90;;;;;;5085054;28;20105;-83
2023/04/18 02:30:30;;;;;;;22.00;14.02;;;4.10;99.90;;;;;;5077708;28;20039;-83
2023/04/18 02:32:58;;;;;;;25.50;15.55;;;4.10;99.90;;;;;;5083082;28;20028;-81
2023/04/18 02:35:26;;;;;;;19.67;13.98;;;4.00;99.90;;;;;;5081345;28;20174;-83
2023/04/18 02:37:52;;;;;;;20.85;13.88;;;4.00;99.90;;;;;;5081812;28;20031;-82
2023/04/18 02:40:18;;;;;;;20.65;14.63;;;4.00;99.90;;;;;;5075477;28;20021;-83
2023/04/18 02:42:43;;;;;;;19.98;14.35;;;3.90;99.90;;;;;;5077665;28;20024;-83
2023/04/18 02:45:09;;;;;;;21.20;14.40;;;3.90;99.90;;;;;;5084086;28;20571;-83
2023/04/18 02:47:35;;;;;;;20.15;13.98;;;3.90;99.90;;;;;;5075905;28;20029;-84
2023/04/18 02:50:04;;;;;;;19.92;14.73;;;3.90;99.90;;;;;;5071377;28;20670;-83
2023/04/18 02:52:30;;;;;;;19.30;14.40;;;3.90;99.90;;;;;;5081894;28;20017;-84
2023/04/18 02:54:56;;;;;;;21.55;14.57;;;3.90;99.90;;;;;;5092277;28;20024;-84
2023/04/18 02:57:21;;;;;;;23.13;15.18;;;3.90;99.90;;;;;;5077881;28;20135;-82
2023/04/18 02:59:47;;;;;;;19.15;13.80;;;3.90;99.90;;;;;;5080904;28;20103;-82
2023/04/18 03:02:12;;;;;;;21.42;13.98;;;3.90;99.90;;;;;;5075103;28;20029;-83
2023/04/18 03:04:38;;;;;;;18.05;13.60;;;3.90;99.90;;;;;;5078931;28;20020;-82
2023/04/18 03:07:03;;;;;;;19.63;13.98;;;3.90;99.90;;;;;;5076754;28;20021;-83
2023/04/18 03:09:29;;;;;;;16.77;12.52;;;3.90;99.90;;;;;;5078293;28;20470;-83
2023/04/18 03:11:55;;;;;;;18.92;13.75;;;3.80;99.90;;;;;;5072717;28;20027;-83
2023/04/18 03:14:20;;;;;;;16.40;12.73;;;3.80;99.90;;;;;;5083264;28;20028;-82
2023/04/18 03:16:46;;;;;;;17.00;13.20;;;3.80;99.90;;;;;;5077780;28;20029;-82
2023/04/18 03:19:11;;;;;;;21.00;13.60;;;3.80;99.90;;;;;;5071034;28;20036;-83
2023/04/18 03:21:37;;;;;;;21.05;14.02;;;3.80;99.90;;;;;;5069809;28;20072;-82
2023/04/18 03:24:03;;;;;;;18.23;12.27;;;3.80;99.90;;;;;;5080402;28;20444;-81
2023/04/18 03:26:28;;;;;;;15.60;12.60;;;3.80;99.90;;;;;;5078936;28;20077;-83
2023/04/18 03:28:54;;;;;;;19.92;12.65;;;3.80;99.90;;;;;;5083667;28;20620;-82
2023/04/18 03:31:19;;;;;;;18.55;13.23;;;3.80;99.90;;;;;;5090156;28;20063;-83
2023/04/18 03:33:45;;;;;;;17.33;12.85;;;3.80;99.90;;;;;;5085065;28;20396;-82
2023/04/18 03:36:16;;;;;;;17.67;13.35;;;3.80;99.90;;;;;;5086149;28;20036;-83
2023/04/18 03:38:41;;;;;;;17.55;13.10;;;3.80;99.90;;;;;;5086059;28;20031;-84
2023/04/18 03:41:07;;;;;;;18.65;13.48;;;3.80;99.90;;;;;;5072350;28;20024;-84
2023/04/18 03:43:32;;;;;;;15.90;11.82;;;3.70;99.90;;;;;;5074648;28;20020;-83
2023/04/18 03:45:58;;;;;;;17.77;13.85;;;3.70;99.90;;;;;;5087262;28;20519;-84
2023/04/18 03:48:23;;;;;;;18.88;13.20;;;3.70;99.90;;;;;;5081842;28;20855;-84
2023/04/18 03:50:49;;;;;;;17.83;12.57;;;3.70;99.90;;;;;;5079786;28;20532;-83
2023/04/18 03:53:15;;;;;;;17.17;13.10;;;3.70;99.90;;;;;;5088271;28;20024;-84
2023/04/18 03:55:41;;;;;;;18.20;12.80;;;3.70;99.90;;;;;;5080828;28;20095;-83
2023/04/18 03:58:06;;;;;;;16.25;12.10;;;3.70;99.90;;;;;;5066754;28;20021;-82
2023/04/18 04:00:32;;;;;;;23.58;13.70;;;3.70;99.90;;;;;;5087894;28;20040;-84
2023/04/18 04:02:58;;;;;;;17.85;13.63;;;3.70;99.90;;;;;;5077895;28;20028;-83
2023/04/18 04:05:23;;;;;;;17.58;12.88;;;3.70;99.90;;;;;;5081948;28;20029;-83
2023/04/18 04:07:49;;;;;;;18.17;12.35;;;3.70;99.90;;;;;;5086599;28;20038;-82
2023/04/18 04:10:14;;;;;;;17.95;12.75;;;3.70;99.90;;;;;;5088871;28;20028;-82
2023/04/18 04:12:40;;;;;;;17.80;11.73;;;3.70;99.90;;;;;;5086086;28;20047;-83
2023/04/18 04:15:06;;;;;;;17.42;12.75;;;3.60;99.90;;;;;;5079774;28;20115;-83
2023/04/18 04:17:32;;;;;;;18.77;12.68;;;3.60;99.90;;;;;;5074369;28;20120;-82
2023/04/18 04:19:57;;;;;;;18.33;12.32;;;3.60;99.90;;;;;;5087990;28;20047;-82
2023/04/18 04:22:23;;;;;;;17.17;13.25;;;3.60;99.90;;;;;;5071930;28;20046;-84
2023/04/18 04:24:48;;;;;;;14.07;10.65;;;3.60;99.90;;;;;;5084648;28;20017;-83
2023/04/18 04:27:14;;;;;;;18.80;11.93;;;3.60;99.90;;;;;;5078839;28;20100;-84
2023/04/18 04:29:40;;;;;;;16.02;12.23;;;3.60;99.90;;;;;;5075323;28;20038;-82
2023/04/18 04:32:06;;;;;;;15.15;11.77;;;3.60;99.90;;;;;;5075081;28;20055;-82
2023/04/18 04:34:33;;;;;;;16.98;12.05;;;3.60;99.90;;;;;;5076834;28;20024;-84
2023/04/18 04:36:59;;;;;;;17.50;11.38;;;3.60;99.90;;;;;;5076458;28;20597;-82
2023/04/18 04:39:25;;;;;;;21.58;12.18;;;3.60;99.90;;;;;;5088490;28;20020;-85
2023/04/18 04:41:52;;;;;;;17.58;11.80;;;3.60;99.90;;;;;;5077244;28;20017;-82
2023/04/18 04:44:18;;;;;;;17.42;11.05;;;3.60;99.90;;;;;;5079913;28;20149;-83
2023/04/18 04:46:44;;;;;;;18.38;11.68;;;3.60;99.90;;;;;;5082285;28;20054;-83
2023/04/18 04:49:10;;;;;;;13.57;10.52;;;3.60;99.90;;;;;;5085354;28;20107;-83
2023/04/18 04:51:36;;;;;;;17.52;11.60;;;3.60;99.90;;;;;;5085489;28;20032;-84
2023/04/18 04:54:02;;;;;;;13.02;10.43;;;3.60;99.90;;;;;;5091846;28;20032;-83
2023/04/18 04:56:28;;;;;;;14.85;11.00;;;3.60;99.90;;;;;;5085953;28;20035;-83
2023/04/18 04:58:54;;;;;;;13.25;10.30;;;3.60;99.90;;;;;;5076942;28;20230;-83
2023/04/18 05:01:20;;;;;;;17.75;11.35;;;3.60;99.90;;;;;;5092013;28;20036;-83
2023/04/18 05:03:46;;;;;;;16.88;11.43;;;3.60;99.90;;;;;;5098428;28;20099;-82
2023/04/18 05:06:12;;;;;;;17.05;10.75;;;3.60;99.90;;;;;;5079159;28;20025;-84
2023/04/18 05:08:38;;;;;;;14.07;10.65;;;3.70;99.90;;;;;;5079355;28;20087;-83
2023/04/18 05:11:04;;;;;;;15.23;10.63;;;3.70;99.90;;;;;;5091334;28;20507;-84
2023/04/18 05:13:30;;;;;;;14.27;11.25;;;3.70;99.90;;;;;;5075418;28;20043;-84
2023/04/18 05:15:55;;;;;;;15.95;11.13;;;3.70;99.90;;;;;;5085055;28;20032;-83
2023/04/18 05:18:21;;;;;;;17.90;11.65;;;3.80;99.90;;;;;;5072155;28;20733;-83
2023/04/18 05:20:46;;;;;;;19.10;11.32;;;3.80;99.90;;;;;;5092408;28;20111;-83
2023/04/18 05:23:12;;;;;;;15.45;10.50;;;3.90;99.90;;;;;;5094240;28;20114;-80
2023/04/18 05:25:37;;;;;;;13.73;10.25;;;3.90;99.90;;;;;;5091464;28;20024;-81
2023/04/18 05:28:03;;;;;;;16.98;10.55;;;4.00;99.90;;;;;;5076394;28;20115;-81
2023/04/18 05:30:29;;;;;;;15.35;11.68;;;4.00;99.90;;;;;;5082350;28;20040;-83
2023/04/18 05:32:55;;;;;;;15.30;9.68;;;4.10;99.90;;;;;;5084911;28;20074;-84
2023/04/18 05:35:20;;;;;;;16.40;10.30;;;4.20;99.90;;;;;;5087424;28;20111;-81
2023/04/18 05:37:46;;;;;;;12.10;9.73;;;4.30;99.90;;;;;;5084016;28;20724;-83
2023/04/18 05:40:12;;;;;;;13.10;10.48;;;4.40;99.90;;;;;;5073284;28;20021;-83
2023/04/18 05:42:38;;;;;;;14.57;10.75;;;4.40;99.90;;;;;;5083103;28;20550;-83
2023/04/18 05:45:04;;;;;;;17.20;10.82;;;4.40;99.90;;;;;;5091776;28;20020;-84
2023/04/18 05:47:29;;;;;;;13.45;10.10;;;4.50;99.90;;;;;;5084942;28;20032;-85
2023/04/18 05:49:55;;;;;;;17.25;10.60;;;4.50;99.90;;;;;;5089397;28;20073;-83
2023/04/18 05:52:21;;;;;;;14.48;10.38;;;4.60;99.90;;;;;;5084427;28;20021;-83
2023/04/18 05:54:46;;;;;;;15.70;9.50;;;4.70;99.90;;;;;;5081588;28;20028;-83
2023/04/18 05:57:12;;;;;;;17.90;9.50;;;4.80;99.90;;;;;;5082165;28;20033;-83
2023/04/18 05:59:38;;;;;;;15.63;9.57;;;4.80;99.90;;;;;;5076084;28;20161;-84
2023/04/18 06:02:03;;;;;;;12.80;10.52;;;4.90;99.90;;;;;;5085282;28;20031;-84
2023/04/18 06:04:29;;;;;;;11.57;8.45;;;4.90;99.90;;;;;;5077736;28;20054;-83
2023/04/18 06:06:54;;;;;;;15.80;9.75;;;4.90;99.90;;;;;;5083301;28;20031;-84
2023/04/18 06:09:20;;;;;;;11.95;8.93;;;5.00;99.90;;;;;;5081821;28;20157;-84
2023/04/18 06:11:45;;;;;;;14.32;8.65;;;5.00;99.90;;;;;;5073874;28;20031;-83
2023/04/18 06:14:11;;;;;;;12.93;8.35;;;5.10;99.90;;;;;;5088681;28;20025;-84
2023/04/18 06:16:37;;;;;;;12.40;7.85;;;5.10;99.90;;;;;;5083409;28;20052;-83
2023/04/18 06:19:04;;;;;;;16.70;9.02;;;5.20;99.90;;;;;;5104603;28;20511;-85
2023/04/18 06:21:30;;;;;;;11.02;8.43;;;5.30;99.90;;;;;;5074853;28;20346;-83
2023/04/18 06:23:55;;;;;;;14.07;8.70;;;5.40;99.90;;;;;;5089881;28;20047;-83
2023/04/18 06:26:21;;;;;;;13.75;9.05;;;5.50;99.90;;;;;;5083997;28;20024;-84
2023/04/18 06:28:47;;;;;;;13.15;9.20;;;5.60;99.90;;;;;;5074411;28;20082;-82
2023/04/18 06:31:12;;;;;;;9.70;8.25;;;5.70;99.90;;;;;;5105048;28;20040;-81
2023/04/18 06:33:38;;;;;;;12.07;8.68;;;5.80;99.90;;;;;;5091226;28;20028;-83
2023/04/18 06:36:04;;;;;;;13.80;8.48;;;5.90;99.90;;;;;;5069982;28;20029;-83
2023/04/18 06:38:30;;;;;;;13.88;8.30;;;5.90;99.90;;;;;;5090887;28;20065;-82
2023/04/18 06:40:56;;;;;;;13.15;8.73;;;6.00;99.90;;;;;;5088752;28;20051;-83
2023/04/18 06:43:22;;;;;;;11.05;7.97;;;6.10;99.90;;;;;;5082908;28;20375;-83
2023/04/18 06:45:47;;;;;;;9.35;7.13;;;6.20;99.90;;;;;;5081925;28;20044;-81
2023/04/18 06:48:13;;;;;;;14.02;8.43;;;6.30;99.90;;;;;;5091800;28;20613;-83
2023/04/18 06:50:38;;;;;;;12.20;8.00;;;6.40;99.90;;;;;;5076655;28;20092;-83
2023/04/18 06:53:04;;;;;;;12.98;8.65;;;6.50;99.90;;;;;;5097053;28;20031;-81
2023/04/18 06:55:29;;;;;;;13.77;7.70;;;6.60;99.90;;;;;;5077230;28;20498;-81
2023/04/18 06:57:55;;;;;;;13.00;8.25;;;6.70;99.90;;;;;;5084007;28;20023;-82
2023/04/18 07:00:21;;;;;;;10.68;6.72;;;6.80;99.90;;;;;;5069548;28;20385;-82
2023/04/18 07:02:47;;;;;;;11.57;8.32;;;6.80;99.90;;;;;;5099555;28;20020;-82
2023/04/18 07:05:12;;;;;;;10.88;7.75;;;6.90;99.90;;;;;;5099449;28;20106;-82
2023/04/18 07:07:38;;;;;;;10.07;7.70;;;7.00;99.90;;;;;;5098058;28;20030;-82
2023/04/18 07:10:05;;;;;;;9.70;7.30;;;7.20;99.90;;;;;;5083174;28;20070;-82
2023/04/18 07:12:31;;;;;;;9.20;6.93;;;7.20;99.90;;;;;;5079123;28;20070;-84
2023/04/18 07:14:56;;;;;;;11.02;7.10;;;7.20;99.90;;;;;;5089440;28;20020;-81
2023/04/18 07:17:22;;;;;;;10.07;6.97;;;7.40;99.90;;;;;;5089925;28;20062;-83
2023/04/18 07:19:48;;;;;;;10.57;6.55;;;7.60;99.90;;;;;;5098935;28;20047;-82
2023/04/18 07:22:13;;;;;;;9.20;6.35;;;7.70;99.90;;;;;;5099055;28;20056;-82
2023/04/18 07:24:39;;;;;;;7.75;6.55;;;7.80;99.90;;;;;;5091690;28;20035;-80
2023/04/18 07:27:05;;;;;;;9.25;6.63;;;7.90;99.90;;;;;;5080697;28;20514;-81
2023/04/18 07:29:31;;;;;;;10.77;6.68;;;8.00;99.90;;;;;;5103156;28;20020;-82
2023/04/18 07:31:57;;;;;;;12.73;7.07;;;8.00;99.90;;;;;;5078912;28;20040;-81
2023/04/18 07:34:24;;;;;;;11.02;7.25;;;8.00;99.90;;;;;;5098171;28;20446;-83
2023/04/18 07:36:50;;;;;;;8.88;6.72;;;8.10;99.90;;;;;;5091267;28;20668;-82
2023/04/18 07:39:16;;;;;;;10.95;7.13;;;8.10;99.90;;;;;;5103017;28;20036;-81
2023/04/18 07:41:41;;;;;;;11.00;7.22;;;8.20;99.90;;;;;;5101674;28;20435;-82
2023/04/18 07:44:07;;;;;;;10.60;7.05;;;8.10;99.90;;;;;;5071156;28;20098;-82
2023/04/18 07:46:33;;;;;;;11.00;7.72;;;8.20;99.90;;;;;;5078932;28;20028;-81
2023/04/18 07:48:58;;;;;;;8.70;6.28;;;8.30;99.90;;;;;;5081997;28;20078;-81
2023/04/18 07:51:30;;;;;;;11.27;6.90;;;8.40;99.90;;;;;;5072808;28;20115;-83
2023/04/18 07:53:56;;;;;;;9.70;6.93;;;8.60;99.90;;;;;;5083634;28;20024;-82
2023/04/18 07:56:21;;;;;;;9.52;7.60;;;8.80;99.90;;;;;;5074909;28;20016;-80
2023/04/18 07:58:47;;;;;;;9.88;7.38;;;9.00;99.90;;;;;;5077191;28;20394;-80
2023/04/18 08:01:14;;;;;;;12.95;8.05;;;9.00;99.90;;;;;;5078708;28;20581;-82
2023/04/18 08:03:40;;;;;;;10.60;7.22;;;9.10;99.90;;;;;;5076243;28;20024;-83
2023/04/18 08:06:06;;;;;;;11.93;8.10;;;9.20;99.90;;;;;;5094457;28;20039;-83
2023/04/18 08:08:31;;;;;;;10.40;6.93;;;9.20;99.90;;;;;;5091699;28;20023;-81
2023/04/18 08:10:57;;;;;;;12.32;7.93;;;9.20;99.90;;;;;;5090399;28;20024;-81
2023/04/18 08:13:22;;;;;;;12.63;7.70;;;9.20;99.90;;;;;;5078402;28;20033;-80
2023/04/18 08:15:48;;;;;;;11.07;7.65;;;9.10;99.90;;;;;;5085951;28;20040;-80
2023/04/18 08:18:13;;;;;;;15.15;8.68;;;9.20;99.90;;;;;;5077366;28;20069;-80
2023/04/18 08:20:39;;;;;;;9.98;7.55;;;9.20;99.90;;;;;;5073529;28;20021;-82
2023/04/18 08:23:06;;;;;;;10.88;7.63;;;9.30;99.90;;;;;;5092124;28;20719;-81
2023/04/18 08:25:32;;;;;;;10.73;8.15;;;9.40;99.90;;;;;;5086310;28;20016;-83
2023/04/18 08:27:57;;;;;;;10.60;7.97;;;9.60;99.90;;;;;;5081411;28;20028;-83
2023/04/18 08:30:23;;;;;;;11.85;8.20;;;9.80;99.90;;;;;;5092155;28;20115;-82
2023/04/18 08:32:49;;;;;;;11.73;7.88;;;10.10;99.90;;;;;;5073700;28;20024;-84
2023/04/18 08:35:15;;;;;;;12.10;7.85;;;10.40;99.90;;;;;;5090019;28;20027;-82
2023/04/18 08:37:40;;;;;;;12.55;8.63;;;10.60;99.90;;;;;;5102405;28;20082;-81
2023/04/18 08:40:06;;;;;;;12.10;8.75;;;10.70;99.90;;;;;;5106060;28;20456;-81
2023/04/18 08:42:33;;;;;;;9.50;7.70;;;10.50;99.90;;;;;;5085742;28;20016;-81
2023/04/18 08:44:59;;;;;;;10.55;7.65;;;10.40;99.90;;;;;;5106662;28;20927;-81
2023/04/18 08:47:27;;;;;;;10.55;8.70;;;10.10;99.90;;;;;;5079526;28;20056;-82
2023/04/18 08:49:54;;;;;;;12.23;8.23;;;10.00;99.90;;;;;;5090406;28;20034;-82
2023/04/18 08:52:21;;;;;;;11.75;8.32;;;9.80;99.90;;;;;;5081734;28;20012;-81
2023/04/18 08:54:48;;;;;;;12.23;8.15;;;9.80;99.90;;;;;;5091371;28;20020;-82
2023/04/18 08:57:15;;;;;;;9.43;8.30;;;9.80;99.90;;;;;;5086084;28;20020;-79
2023/04/18 08:59:44;;;;;;;11.18;8.65;;;9.90;99.90;;;;;;5111370;28;20013;-81
2023/04/18 09:02:11;;;;;;;10.90;8.55;;;9.80;99.90;;;;;;5094288;28;20039;-81
2023/04/18 09:04:39;;;;;;;12.32;8.55;;;10.00;99.90;;;;;;5083600;28;20068;-82
2023/04/18 09:07:10;;;;;;;9.00;7.88;;;10.20;99.90;;;;;;5088238;28;20031;-82
2023/04/18 09:09:45;;;;;;;12.15;8.43;;;10.10;99.90;;;;;;5089909;28;20031;-82
2023/04/18 09:12:13;;;;;;;11.95;8.25;;;10.40;99.90;;;;;;5069543;28;20020;-82
2023/04/18 09:14:44;;;;;;;9.68;8.68;;;10.40;99.90;;;;;;5101524;28;20031;-82
2023/04/18 09:17:12;;;;;;;15.00;8.93;;;10.40;99.90;;;;;;5066071;28;20024;-80
2023/04/18 09:19:45;;;;;;;12.43;8.10;;;10.40;99.90;;;;;;5084400;28;20497;-80
2023/04/18 09:22:12;;;;;;;11.60;8.30;;;10.30;99.90;;;;;;5077102;28;20111;-82
2023/04/18 09:24:38;;;;;;;10.50;8.13;;;10.40;99.90;;;;;;5079678;28;20012;-82
2023/04/18 09:27:11;;;;;;;11.02;8.23;;;10.50;99.90;;;;;;5076156;28;20042;-82
2023/04/18 09:29:45;;;;;;;9.45;7.35;;;10.60;99.90;;;;;;5073219;28;20073;-81
2023/04/18 09:32:22;;;;;;;10.90;7.53;;;10.70;99.90;;;;;;5073675;28;20056;-81
2023/04/18 09:34:48;;;;;;;13.80;8.20;;;10.90;99.90;;;;;;5086134;28;20368;-82
2023/04/18 09:37:14;;;;;;;8.15;7.35;;;11.20;99.90;;;;;;5087201;28;20035;-81
2023/04/18 09:39:42;;;;;;;9.15;7.65;;;11.40;99.90;;;;;;5104667;28;20012;-81
2023/04/18 09:42:09;;;;;;;13.10;7.65;;;11.20;99.90;;;;;;5072857;28;20028;-82
2023/04/18 09:44:35;;;;;;;9.38;6.90;;;11.20;99.90;;;;;;5085340;28;20420;-84
2023/04/18 09:47:01;;;;;;;9.23;8.20;;;11.20;99.90;;;;;;5086635;28;20312;-82
2023/04/18 09:49:27;;;;;;;10.70;8.25;;;11.00;99.90;;;;;;5100532;28;20057;-80
2023/04/18 09:51:54;;;;;;;11.98;7.60;;;10.70;99.90;;;;;;5101836;28;20024;-81
2023/04/18 09:54:23;;;;;;;9.57;7.80;;;10.50;99.90;;;;;;5090811;28;20020;-81
2023/04/18 09:56:50;;;;;;;11.40;7.88;;;10.60;99.90;;;;;;5079963;28;20028;-81
2023/04/18 09:59:30;;;;;;;11.30;7.40;;;10.90;99.90;;;;;;5085520;28;20498;-81
2023/04/18 10:01:58;;;;;;;10.05;6.97;;;11.00;99.90;;;;;;5085230;28;20040;-80
2023/04/18 10:04:24;;;;;;;8.82;7.47;;;10.80;99.90;;;;;;5101603;28;20020;-80
2023/04/18 10:06:52;;;;;;;11.35;6.95;;;10.80;99.90;;;;;;5090301;28;20141;-80
2023/04/18 10:09:19;;;;;;;10.00;8.05;;;10.70;99.90;;;;;;5086705;28;20031;-81
2023/04/18 10:11:45;;;;;;;10.82;7.50;;;10.70;99.90;;;;;;5076564;28;20039;-82
2023/04/18 10:14:14;;;;;;;12.00;8.52;;;10.70;99.90;;;;;;5101089;28;20024;-80
2023/04/18 10:16:44;;;;;;;9.57;7.35;;;10.70;99.90;;;;;;5072676;28;20093;-81
2023/04/18 10:19:43;;;;;;;9.25;7.05;;;10.50;99.90;;;;;;5079976;28;20103;-82
2023/04/18 10:22:10;;;;;;;9.30;7.57;;;10.30;99.90;;;;;;5070460;28;20051;-80
2023/04/18 10:24:48;;;;;;;10.57;8.40;;;10.30;99.90;;;;;;5078903;28;20030;-79
2023/04/18 10:27:15;;;;;;;9.88;7.55;;;10.10;99.90;;;;;;5077733;28;20016;-80
2023/04/18 10:29:49;;;;;;;10.52;7.40;;;10.00;99.90;;;;;;5067033;28;20029;-81
2023/04/18 10:32:15;;;;;;;10.23;7.30;;;10.00;99.90;;;;;;5070343;28;20055;-80
2023/04/18 10:34:41;;;;;;;10.43;7.68;;;10.00;99.90;;;;;;5092573;28;20016;-81
2023/04/18 10:37:07;;;;;;;10.40;7.22;;;9.90;99.90;;;;;;5096993;28;20124;-82
2023/04/18 10:39:52;;;;;;;10.18;7.47;;;9.80;99.90;;;;;;5084323;28;20023;-81
2023/04/18 10:42:18;;;;;;;9.18;6.85;;;9.60;99.90;;;;;;5079610;28;20020;-82
2023/04/18 10:45:16;;;;;;;10.80;7.25;;;9.50;99.90;;;;;;5090096;28;20016;-82
2023/04/18 10:47:42;;;;;;;9.30;8.02;;;9.40;99.90;;;;;;5100656;28;20478;-80
2023/04/18 10:50:07;;;;;;;9.20;7.68;;;9.30;99.90;;;;;;5077204;28;20095;-81
2023/04/18 10:52:33;;;;;;;11.40;8.15;;;9.40;99.90;;;;;;5068437;28;20020;-80
2023/04/18 10:55:19;;;;;;;8.80;7.65;;;9.40;99.90;;;;;;5087480;28;20032;-81
2023/04/18 10:57:50;;;;;;;10.37;8.53;;;9.50;99.90;;;;;;5085053;28;20027;-81
2023/04/18 11:00:19;;;;;;;10.82;8.10;;;9.70;99.90;;;;;;5089389;28;20012;-82
2023/04/18 11:02:54;;;;;;;10.70;7.68;;;9.90;99.90;;;;;;5083438;28;20107;-79
2023/04/18 11:05:25;;;;;;;10.15;7.38;;;9.90;99.90;;;;;;5090540;28;20013;-81
2023/04/18 11:07:54;;;;;;;11.25;8.10;;;9.90;99.90;;;;;;5080137;28;20020;-80
2023/04/18 11:10:25;;;;;;;9.45;7.45;;;10.10;99.90;;;;;;5100197;28;20024;-81
2023/04/18 11:12:51;;;;;;;11.57;8.30;;;10.30;99.90;;;;;;5092095;28;20016;-82
2023/04/18 11:15:22;;;;;;;13.05;7.53;;;10.50;99.90;;;;;;5084773;28;20653;-82
2023/04/18 11:18:02;;;;;;;9.43;7.53;;;10.70;99.90;;;;;;5081434;28;20410;-82
2023/04/18 11:20:36;;;;;;;9.43;7.72;;;10.70;99.90;;;;;;5085194;28;20020;-84
2023/04/18 11:23:02;;;;;;;8.65;6.97;;;10.80;99.90;;;;;;5099362;28;20019;-83
2023/04/18 11:25:35;;;;;;;9.30;6.70;;;10.70;99.90;;;;;;5089446;28;20013;-82
2023/04/18 11:28:02;;;;;;;8.00;7.18;;;10.80;99.90;;;;;;5100133;28;20029;-81
2023/04/18 11:30:38;;;;;;;9.10;5.57;;;11.00;99.90;;;;;;5085282;28;20032;-84
2023/04/18 11:33:06;;;;;;;8.52;6.10;;;11.10;99.90;;;;;;5089201;28;20020;-79
2023/04/18 11:35:39;;;;;;;7.45;6.05;;;11.20;99.90;;;;;;5080649;28;20479;-81
2023/04/18 11:38:06;;;;;;;7.20;5.97;;;11.20;99.90;;;;;;5107131;28;20035;-83
2023/04/18 11:40:31;;;;;;;8.55;6.07;;;11.30;99.90;;;;;;5094973;28;20020;-81
2023/04/18 11:43:01;;;;;;;9.75;6.05;;;11.40;99.90;;;;;;5087129;28;20023;-82
2023/04/18 11:45:26;;;;;;;6.47;5.65;;;11.50;99.90;;;;;;5082674;28;20021;-81
2023/04/18 11:47:57;;;;;;;10.50;5.97;;;11.40;99.90;;;;;;5076808;28;20032;-80
2023/04/18 11:50:23;;;;;;;9.93;6.45;;;11.30;99.90;;;;;;5086128;28;20032;-82
2023/04/18 11:52:50;;;;;;;7.45;5.90;;;11.30;99.90;;;;;;5090333;28;20248;-84
2023/04/18 11:55:20;;;;;;;7.93;6.30;;;11.20;99.90;;;;;;5084785;28;20021;-83
2023/04/18 11:57:56;;;;;;;7.60;5.57;;;11.40;99.90;;;;;;5102550;28;20032;-83
2023/04/18 12:00:35;;;;;;;7.40;6.05;;;11.50;99.90;;;;;;5093452;28;20086;-82
2023/04/18 12:03:03;;;;;;;7.82;5.97;;;11.30;99.90;;;;;;5085563;28;20126;-81
2023/04/18 12:05:34;;;;;;;8.55;5.88;;;11.30;99.90;;;;;;5110113;28;20015;-83
2023/04/18 12:08:17;;;;;;;5.85;5.35;;;11.40;99.90;;;;;;5068109;28;20063;-82
2023/04/18 12:10:50;;;;;;;6.95;5.13;;;11.10;99.90;;;;;;5079334;28;20031;-81
2023/04/18 12:13:17;;;;;;;6.90;4.75;;;11.20;99.90;;;;;;5075835;28;20028;-83
2023/04/18 12:15:44;;;;;;;7.38;5.15;;;11.30;99.90;;;;;;5076891;28;20241;-82
2023/04/18 12:18:12;;;;;;;7.20;5.15;;;11.30;99.90;;;;;;5080592;28;20031;-81
2023/04/18 12:20:52;;;;;;;6.85;5.47;;;11.40;99.90;;;;;;5099277;28;20082;-81
2023/04/18 12:23:36;;;;;;;5.63;5.13;;;11.00;99.90;;;;;;5080529;28;20046;-82
2023/04/18 12:26:19;;;;;;;5.78;4.10;;;11.10;99.90;;;;;;5092879;28;20148;-81
2023/04/18 12:28:50;;;;;;;4.43;4.03;;;11.30;99.90;;;;;;5089140;28;20028;-81
2023/04/18 12:31:15;;;;;;;6.18;4.28;;;11.20;99.90;;;;;;5096954;28;20462;-81
2023/04/18 12:33:41;;;;;;;7.80;4.60;;;11.20;99.90;;;;;;5070338;28;20055;-81
2023/04/18 12:36:10;;;;;;;4.65;4.18;;;11.20;99.90;;;;;;5071040;28;20160;-83
2023/04/18 12:38:35;;;;;;;5.82;4.00;;;11.40;99.90;;;;;;5082794;28;20119;-83
2023/04/18 12:41:01;;;;;;;4.80;4.05;;;11.40;99.90;;;;;;5087411;28;20067;-81